Time;durP1;ratioP1;P1;durP2;ratioP2;P2;SDS_P1;SDS_P2;PMS_P1;PMS_P2;Temp;Humidity;BMP_temperature;BMP_pressure;BME280_temperature;BME280_humidity;BME280_pressure;Samples;Min_cycle;Max_cycle;Signal;HPM_P1;HPM_P2
2023/12/20 00:01:51;;;;;;;14.98;5.05;;;;;;;;;;9878207;29;20054;-71
2023/12/20 00:06:47;;;;;;;18.95;5.93;;;;;;;;;;9871304;29;20064;-70
2023/12/20 00:11:44;;;;;;;15.63;5.80;;;;;;;;;;9867589;29;20129;-69
2023/12/20 00:16:40;;;;;;;16.27;5.68;;;;;;;;;;9880260;29;20089;-69
2023/12/20 00:21:36;;;;;;;16.13;5.43;;;;;;;;;;9893674;23;20080;-70
2023/12/20 00:26:33;;;;;;;10.43;5.40;;;;;;;;;;9870022;29;20060;-71
2023/12/20 00:31:29;;;;;;;14.77;5.82;;;;;;;;;;9870823;29;20110;-70
2023/12/20 00:36:25;;;;;;;14.63;5.28;;;;;;;;;;9847115;29;20549;-70
2023/12/20 00:41:21;;;;;;;17.40;5.50;;;;;;;;;;9843610;29;20061;-70
2023/12/20 00:46:19;;;;;;;16.13;6.35;;;;;;;;;;9841657;29;20053;-70
2023/12/20 00:51:15;;;;;;;10.77;5.68;;;;;;;;;;9841723;29;20058;-70
2023/12/20 00:56:11;;;;;;;12.55;5.43;;;;;;;;;;9834090;29;20527;-69
2023/12/20 01:01:08;;;;;;;18.63;5.78;;;;;;;;;;9835415;29;20068;-70
2023/12/20 01:06:05;;;;;;;18.65;6.57;;;;;;;;;;9817980;29;20050;-69
2023/12/20 01:11:03;;;;;;;7.90;5.97;;;;;;;;;;9826357;29;20128;-70
2023/12/20 01:15:59;;;;;;;14.70;6.28;;;;;;;;;;9831255;29;20074;-70
2023/12/20 01:20:56;;;;;;;9.70;4.95;;;;;;;;;;9838147;29;20074;-70
2023/12/20 01:25:53;;;;;;;17.48;6.00;;;;;;;;;;9838335;29;20054;-70
2023/12/20 01:30:50;;;;;;;11.75;5.65;;;;;;;;;;9857694;23;20606;-71
2023/12/20 01:35:46;;;;;;;16.85;6.25;;;;;;;;;;9896375;29;20144;-69
2023/12/20 01:40:42;;;;;;;10.95;5.50;;;;;;;;;;9899771;29;20137;-70
2023/12/20 01:45:39;;;;;;;17.80;5.45;;;;;;;;;;9876366;29;20073;-72
2023/12/20 01:50:39;;;;;;;18.85;5.97;;;;;;;;;;9938901;23;20569;-72
2023/12/20 01:55:38;;;;;;;14.73;5.13;;;;;;;;;;9896637;29;20053;-72
2023/12/20 02:00:35;;;;;;;15.85;5.72;;;;;;;;;;9910264;29;20045;-69
2023/12/20 02:05:32;;;;;;;17.75;5.07;;;;;;;;;;9922641;29;20052;-69
2023/12/20 02:10:29;;;;;;;19.13;5.43;;;;;;;;;;9915408;29;20048;-70
2023/12/20 02:15:26;;;;;;;10.38;4.65;;;;;;;;;;9914307;29;20053;-70
2023/12/20 02:20:22;;;;;;;14.50;5.32;;;;;;;;;;9915451;29;20160;-70
2023/12/20 02:25:18;;;;;;;10.68;4.60;;;;;;;;;;9910484;29;20088;-71
2023/12/20 02:30:15;;;;;;;15.75;5.25;;;;;;;;;;9921246;29;20113;-70
2023/12/20 02:35:11;;;;;;;15.02;5.18;;;;;;;;;;9903263;29;20072;-70
2023/12/20 02:45:19;;;;;;;14.32;4.75;;;;;;;;;;5957702;27;20065;-71
2023/12/20 02:50:15;;;;;;;18.55;4.88;;;;;;;;;;9950951;29;20477;-71
2023/12/20 02:55:11;;;;;;;8.40;4.70;;;;;;;;;;9899380;29;20162;-70
2023/12/20 03:00:09;;;;;;;9.68;5.07;;;;;;;;;;9915158;29;20095;-71
2023/12/20 03:05:05;;;;;;;11.43;5.10;;;;;;;;;;9910119;29;20072;-70
2023/12/20 03:10:02;;;;;;;10.88;5.10;;;;;;;;;;9906381;29;20128;-69
2023/12/20 03:15:15;;;;;;;;;;;;;;;;;;9901719;29;20113;-70
2023/12/20 03:20:11;;;;;;;13.25;5.18;;;;;;;;;;9911915;29;20000;-70
2023/12/20 03:25:08;;;;;;;14.63;5.43;;;;;;;;;;9915640;29;20056;-70
2023/12/20 03:35:05;;;;;;;11.35;4.85;;;;;;;;;;9879040;29;20069;-71
2023/12/20 03:40:02;;;;;;;8.80;4.03;;;;;;;;;;9873003;29;20050;-70
2023/12/20 03:44:59;;;;;;;15.95;5.45;;;;;;;;;;9867850;29;20053;-70
2023/12/20 03:49:55;;;;;;;19.65;5.13;;;;;;;;;;9878036;29;20050;-71
2023/12/20 03:54:51;;;;;;;16.27;5.20;;;;;;;;;;9867308;29;20053;-69
2023/12/20 03:59:48;;;;;;;12.50;5.20;;;;;;;;;;9868769;29;20091;-69
2023/12/20 04:04:44;;;;;;;13.30;4.95;;;;;;;;;;9877981;29;20532;-70
2023/12/20 04:09:41;;;;;;;13.93;4.90;;;;;;;;;;9867660;29;20065;-70
2023/12/20 04:14:37;;;;;;;18.23;5.28;;;;;;;;;;9872720;23;20073;-71
2023/12/20 04:19:33;;;;;;;22.90;5.80;;;;;;;;;;9863329;29;20054;-71
2023/12/20 04:24:30;;;;;;;9.60;4.85;;;;;;;;;;9828757;29;20050;-71
2023/12/20 04:29:26;;;;;;;17.88;5.78;;;;;;;;;;9826238;29;20306;-71
2023/12/20 04:34:23;;;;;;;18.98;5.45;;;;;;;;;;9826170;29;20065;-75
2023/12/20 04:39:19;;;;;;;13.05;5.43;;;;;;;;;;9820548;29;20050;-74
2023/12/20 04:44:15;;;;;;;11.63;5.45;;;;;;;;;;9887366;23;20565;-74
2023/12/20 04:49:12;;;;;;;10.98;5.43;;;;;;;;;;9835129;29;20520;-75
2023/12/20 04:54:09;;;;;;;11.85;5.72;;;;;;;;;;9826478;29;20153;-72
2023/12/20 04:59:06;;;;;;;13.93;5.15;;;;;;;;;;9815496;29;20134;-74
2023/12/20 05:04:02;;;;;;;15.30;5.88;;;;;;;;;;9829572;29;20106;-73
2023/12/20 05:08:58;;;;;;;17.25;6.32;;;;;;;;;;9820798;29;20538;-73
2023/12/20 05:13:55;;;;;;;11.93;5.40;;;;;;;;;;9828742;29;20046;-73
2023/12/20 05:18:52;;;;;;;14.07;6.03;;;;;;;;;;9823288;29;20050;-75
2023/12/20 05:23:49;;;;;;;14.85;5.95;;;;;;;;;;9825855;29;20057;-73
2023/12/20 05:28:48;;;;;;;13.95;5.15;;;;;;;;;;9822988;29;20760;-72
2023/12/20 05:33:47;;;;;;;8.70;5.63;;;;;;;;;;9799033;29;20146;-75
2023/12/20 05:38:47;;;;;;;17.63;5.80;;;;;;;;;;9806581;29;20055;-73
2023/12/20 05:43:43;;;;;;;11.35;5.05;;;;;;;;;;9828771;29;20054;-72
2023/12/20 05:48:39;;;;;;;18.48;5.15;;;;;;;;;;9841232;29;20579;-73
2023/12/20 05:53:36;;;;;;;13.85;5.82;;;;;;;;;;9825384;29;20111;-73
2023/12/20 05:58:32;;;;;;;20.92;5.25;;;;;;;;;;9815983;29;20047;-74
2023/12/20 06:03:29;;;;;;;13.68;6.15;;;;;;;;;;9822439;29;20078;-74
2023/12/20 06:08:25;;;;;;;16.42;5.38;;;;;;;;;;9834271;29;20066;-75
2023/12/20 06:13:22;;;;;;;13.30;5.05;;;;;;;;;;9821203;29;20055;-76
2023/12/20 06:18:18;;;;;;;13.88;5.72;;;;;;;;;;9822100;29;20058;-76
2023/12/20 06:23:14;;;;;;;18.88;6.65;;;;;;;;;;9807753;29;20053;-75
2023/12/20 06:28:14;;;;;;;18.38;6.10;;;;;;;;;;9812827;29;20674;-77
2023/12/20 06:33:11;;;;;;;18.40;6.43;;;;;;;;;;9834805;29;20463;-76
2023/12/20 06:38:09;;;;;;;11.75;6.00;;;;;;;;;;9847413;29;20064;-76
2023/12/20 06:43:06;;;;;;;16.23;6.57;;;;;;;;;;9832310;29;20053;-75
2023/12/20 06:48:16;;;;;;;16.48;6.22;;;;;;;;;;9832189;29;20085;-76
2023/12/20 06:53:14;;;;;;;14.88;6.68;;;;;;;;;;9836447;29;20046;-76
2023/12/20 06:58:10;;;;;;;16.73;6.25;;;;;;;;;;9830077;29;20123;-76
2023/12/20 07:03:07;;;;;;;11.00;5.85;;;;;;;;;;9831467;29;20141;-75
2023/12/20 07:08:03;;;;;;;12.88;5.88;;;;;;;;;;9836432;29;20126;-75
2023/12/20 07:13:00;;;;;;;14.45;6.53;;;;;;;;;;9836044;29;20046;-75
2023/12/20 07:17:56;;;;;;;16.45;6.90;;;;;;;;;;9831363;29;20077;-74
2023/12/20 07:22:53;;;;;;;15.18;7.20;;;;;;;;;;9830610;29;20058;-75
2023/12/20 07:27:49;;;;;;;19.33;6.20;;;;;;;;;;9840812;29;20053;-75
2023/12/20 07:32:47;;;;;;;16.00;7.03;;;;;;;;;;9835811;29;20062;-74
2023/12/20 07:37:44;;;;;;;15.00;6.00;;;;;;;;;;9811680;29;20053;-75
2023/12/20 07:42:40;;;;;;;13.05;6.20;;;;;;;;;;9838730;29;20058;-75
2023/12/20 07:47:37;;;;;;;16.63;5.85;;;;;;;;;;9839013;29;20046;-74
2023/12/20 07:52:33;;;;;;;12.75;5.78;;;;;;;;;;9835421;29;20567;-74
2023/12/20 07:57:30;;;;;;;19.58;6.40;;;;;;;;;;9834840;29;20080;-74
2023/12/20 08:02:26;;;;;;;17.50;6.05;;;;;;;;;;9814985;29;20054;-75
2023/12/20 08:07:23;;;;;;;15.02;6.60;;;;;;;;;;9829844;29;20058;-74
2023/12/20 08:12:19;;;;;;;19.55;5.88;;;;;;;;;;9820472;29;20050;-75
2023/12/20 08:17:16;;;;;;;15.02;6.97;;;;;;;;;;9837935;29;20049;-74
2023/12/20 08:22:12;;;;;;;15.07;6.40;;;;;;;;;;9836655;29;20118;-76
2023/12/20 08:27:09;;;;;;;14.13;6.22;;;;;;;;;;9833727;29;20053;-77
2023/12/20 08:32:05;;;;;;;17.00;5.97;;;;;;;;;;9835146;29;20054;-74
2023/12/20 08:37:02;;;;;;;18.52;5.22;;;;;;;;;;9831038;29;20057;-75
2023/12/20 08:41:58;;;;;;;26.17;5.82;;;;;;;;;;9808855;29;20054;-74
2023/12/20 08:46:57;;;;;;;25.23;6.20;;;;;;;;;;9824103;29;20057;-75
2023/12/20 08:51:53;;;;;;;23.35;6.88;;;;;;;;;;9842975;29;20088;-76
2023/12/20 08:56:49;;;;;;;17.08;6.15;;;;;;;;;;9832961;29;20493;-74
2023/12/20 09:01:48;;;;;;;20.55;5.43;;;;;;;;;;9831623;29;20791;-75
2023/12/20 09:06:44;;;;;;;17.85;5.15;;;;;;;;;;9830192;29;20066;-75
2023/12/20 09:11:41;;;;;;;14.50;5.38;;;;;;;;;;9834378;29;20050;-75
2023/12/20 09:16:37;;;;;;;15.38;5.20;;;;;;;;;;9827448;29;20053;-74
2023/12/20 09:26:52;;;;;;;6.90;3.50;;;;;;;;;;9877972;23;20058;-74
2023/12/20 09:31:49;;;;;;;7.95;3.70;;;;;;;;;;9837268;29;20062;-74
2023/12/20 09:36:46;;;;;;;6.97;3.28;;;;;;;;;;9826668;29;20073;-73
2023/12/20 09:41:47;;;;;;;6.93;3.67;;;;;;;;;;9833514;29;20061;-73
2023/12/20 09:46:44;;;;;;;5.75;3.15;;;;;;;;;;9821289;29;20076;-74
2023/12/20 09:51:40;;;;;;;6.85;4.15;;;;;;;;;;9841431;29;20069;-73
2023/12/20 09:56:37;;;;;;;6.95;4.10;;;;;;;;;;9825603;29;20054;-75
2023/12/20 10:01:34;;;;;;;6.45;5.47;;;;;;;;;;9834525;29;20054;-75
2023/12/20 10:06:30;;;;;;;6.10;4.15;;;;;;;;;;9811241;29;20061;-73
2023/12/20 10:11:27;;;;;;;5.95;4.95;;;;;;;;;;9845853;29;20545;-73
2023/12/20 10:16:27;;;;;;;6.82;5.30;;;;;;;;;;9830004;29;20102;-74
2023/12/20 10:21:26;;;;;;;4.75;4.22;;;;;;;;;;9843117;29;20531;-74
2023/12/20 10:26:23;;;;;;;4.97;4.47;;;;;;;;;;9828634;29;20058;-75
2023/12/20 10:31:26;;;;;;;6.57;4.70;;;;;;;;;;9839252;29;20085;-74
2023/12/20 10:36:23;;;;;;;8.23;4.22;;;;;;;;;;9829036;29;20057;-74
2023/12/20 10:41:24;;;;;;;8.30;5.03;;;;;;;;;;9832856;29;20426;-75
2023/12/20 10:46:20;;;;;;;7.47;4.53;;;;;;;;;;9835222;29;20058;-75
2023/12/20 10:51:18;;;;;;;7.43;5.18;;;;;;;;;;9848883;29;20054;-75
2023/12/20 10:56:15;;;;;;;5.38;4.72;;;;;;;;;;9821986;29;20769;-74
2023/12/20 11:01:14;;;;;;;8.13;5.32;;;;;;;;;;9838692;29;20576;-77
2023/12/20 11:06:25;;;;;;;8.88;5.47;;;;;;;;;;9826222;29;20081;-76
2023/12/20 11:11:27;;;;;;;5.82;4.50;;;;;;;;;;9821989;29;20438;-75
2023/12/20 11:16:25;;;;;;;13.07;5.45;;;;;;;;;;9834221;29;20058;-74
2023/12/20 11:21:29;;;;;;;7.90;4.20;;;;;;;;;;9839941;29;20066;-75
2023/12/20 11:26:29;;;;;;;9.77;5.38;;;;;;;;;;9849420;29;20058;-75
2023/12/20 11:31:26;;;;;;;7.78;4.53;;;;;;;;;;9845303;29;20054;-74
2023/12/20 11:36:25;;;;;;;4.38;3.80;;;;;;;;;;9830852;29;20643;-74
2023/12/20 11:41:23;;;;;;;8.18;4.45;;;;;;;;;;9818281;29;20050;-74
2023/12/20 11:46:20;;;;;;;5.70;5.10;;;;;;;;;;9833963;29;20150;-74
2023/12/20 11:51:16;;;;;;;9.02;4.97;;;;;;;;;;9841201;29;20070;-74
2023/12/20 11:56:13;;;;;;;8.20;4.95;;;;;;;;;;9840096;29;20082;-76
2023/12/20 12:01:09;;;;;;;11.40;5.03;;;;;;;;;;9821158;29;20058;-75
2023/12/20 12:06:06;;;;;;;17.73;5.57;;;;;;;;;;9816591;29;20518;-76
2023/12/20 12:11:02;;;;;;;12.35;4.78;;;;;;;;;;9837787;29;20047;-75
2023/12/20 12:15:59;;;;;;;13.70;4.80;;;;;;;;;;9830482;29;20049;-75
2023/12/20 12:21:02;;;;;;;20.45;6.60;;;;;;;;;;9831925;29;20425;-76
2023/12/20 12:26:06;;;;;;;12.23;4.65;;;;;;;;;;9836428;29;20140;-75
2023/12/20 12:36:44;;;;;;;24.70;6.18;;;;;;;;;;2644392;27;20052;-78
2023/12/20 13:00:50;;;;;;;;;;;;;;;;;;;;;
2023/12/20 16:10:57;;;;;;;14.27;6.53;;;;;;;;;;9810497;29;20057;-75
2023/12/20 16:22:03;;;;;;;12.23;6.40;;;;;;;;;;9825885;23;20061;-78
2023/12/20 16:27:03;;;;;;;12.30;6.07;;;;;;;;;;9870050;29;20050;-79
2023/12/20 16:31:59;;;;;;;17.65;6.70;;;;;;;;;;9878249;29;20128;-78
2023/12/20 16:36:57;;;;;;;12.90;6.03;;;;;;;;;;9870939;29;20049;-76
2023/12/20 16:41:54;;;;;;;21.27;7.03;;;;;;;;;;9862305;29;20442;-78
2023/12/20 16:46:50;;;;;;;21.15;7.55;;;;;;;;;;9878299;29;20418;-78
2023/12/20 17:07:21;;;;;;;9.40;4.40;;;;;;;;;;9621277;27;20403;-77
2023/12/20 17:12:18;;;;;;;5.70;4.68;;;;;;;;;;9868487;29;20448;-78
2023/12/20 17:17:14;;;;;;;15.02;4.95;;;;;;;;;;9877199;29;20561;-76
2023/12/20 17:22:10;;;;;;;14.48;6.32;;;;;;;;;;9878029;29;20483;-79
2023/12/20 17:27:08;;;;;;;12.93;5.63;;;;;;;;;;9851825;29;20053;-77
2023/12/20 17:32:05;;;;;;;15.90;6.30;;;;;;;;;;9877924;29;20652;-78
2023/12/20 17:37:02;;;;;;;12.93;6.57;;;;;;;;;;9864122;29;20046;-77
2023/12/20 17:41:59;;;;;;;18.38;7.15;;;;;;;;;;9857993;29;20050;-78
2023/12/20 17:46:55;;;;;;;18.77;6.57;;;;;;;;;;9873320;29;20070;-78
2023/12/20 17:51:51;;;;;;;20.73;7.28;;;;;;;;;;9877101;29;20046;-78
2023/12/20 17:56:48;;;;;;;21.67;7.22;;;;;;;;;;9878389;29;20048;-78
2023/12/20 20:39:52;;;;;;;18.58;6.35;;;;;;;;;;9871557;29;20045;-77
2023/12/20 21:18:05;;;;;;;9.18;5.90;;;;;;;;;;9848676;29;20087;-74
2023/12/20 21:23:03;;;;;;;8.18;5.65;;;;;;;;;;9874243;29;20060;-70
2023/12/20 21:27:59;;;;;;;12.15;6.30;;;;;;;;;;9891460;29;20060;-69
2023/12/20 21:32:56;;;;;;;10.07;6.30;;;;;;;;;;9871935;29;20441;-70
2023/12/20 21:37:52;;;;;;;16.13;6.05;;;;;;;;;;9871399;29;20053;-70
2023/12/20 21:42:49;;;;;;;10.75;6.05;;;;;;;;;;9863352;29;20049;-71
2023/12/20 21:47:46;;;;;;;12.65;7.10;;;;;;;;;;9874882;29;20109;-71
2023/12/20 21:52:42;;;;;;;10.85;6.68;;;;;;;;;;9876503;29;21298;-71
2023/12/20 21:57:39;;;;;;;8.75;6.18;;;;;;;;;;9868979;29;20042;-71
2023/12/20 22:02:35;;;;;;;7.25;6.10;;;;;;;;;;9870231;29;20053;-70
2023/12/20 22:07:31;;;;;;;9.18;6.70;;;;;;;;;;9872271;29;20061;-71
2023/12/20 22:12:28;;;;;;;11.05;7.07;;;;;;;;;;9877647;29;20049;-71
2023/12/20 22:17:24;;;;;;;11.80;7.05;;;;;;;;;;9869498;29;20054;-70
2023/12/20 22:22:21;;;;;;;8.73;7.82;;;;;;;;;;9882804;29;20045;-71
2023/12/20 22:27:18;;;;;;;10.23;8.18;;;;;;;;;;9855094;29;20088;-70
2023/12/20 22:32:14;;;;;;;13.25;8.38;;;;;;;;;;9865008;29;20113;-71
2023/12/20 22:37:11;;;;;;;13.32;9.25;;;;;;;;;;9860791;29;20505;-70
2023/12/20 22:42:07;;;;;;;13.10;9.55;;;;;;;;;;9946692;23;20565;-71
2023/12/20 22:47:03;;;;;;;10.95;9.80;;;;;;;;;;9842119;29;20452;-70
2023/12/20 22:52:00;;;;;;;12.32;10.00;;;;;;;;;;9845871;29;20066;-70
2023/12/20 22:56:56;;;;;;;14.52;9.43;;;;;;;;;;9829309;29;20062;-71
2023/12/20 23:01:53;;;;;;;9.93;8.35;;;;;;;;;;9833702;29;20083;-71
2023/12/20 23:06:49;;;;;;;10.88;8.75;;;;;;;;;;9832856;29;20058;-70
2023/12/20 23:11:45;;;;;;;7.07;6.38;;;;;;;;;;9835026;29;20538;-69
2023/12/20 23:16:46;;;;;;;7.32;5.60;;;;;;;;;;9827494;29;20069;-70
2023/12/20 23:21:42;;;;;;;5.82;4.32;;;;;;;;;;9838343;29;20050;-70
2023/12/20 23:26:39;;;;;;;6.03;4.10;;;;;;;;;;9836694;29;20050;-68
2023/12/20 23:31:35;;;;;;;4.53;3.47;;;;;;;;;;9838422;29;20061;-70
2023/12/20 23:36:31;;;;;;;5.30;3.38;;;;;;;;;;9837590;29;20725;-70
2023/12/20 23:41:28;;;;;;;8.05;3.67;;;;;;;;;;9835813;29;20058;-70
2023/12/20 23:46:24;;;;;;;5.70;3.50;;;;;;;;;;9833356;29;20056;-69
2023/12/20 23:51:21;;;;;;;7.18;3.28;;;;;;;;;;9832133;29;20092;-69
2023/12/20 23:56:17;;;;;;;7.85;2.67;;;;;;;;;;9845015;29;20054;-68
